createdAt,value
2024-01-11T00:05:33.515Z,16.40
2024-01-11T00:15:34.224Z,12.30
2024-01-11T00:25:34.763Z,14.90
2024-01-11T00:35:42.405Z,15.00
2024-01-11T00:45:36.016Z,12.00
2024-01-11T00:55:36.516Z,10.60
2024-01-11T01:05:37.192Z,12.30
2024-01-11T01:15:37.762Z,11.80
2024-01-11T01:25:38.343Z,11.20
2024-01-11T01:35:38.980Z,12.00
2024-01-11T01:45:39.591Z,13.90
2024-01-11T01:55:40.137Z,15.60
2024-01-11T02:05:40.788Z,16.40
2024-01-11T02:15:41.355Z,15.20
2024-01-11T02:25:41.968Z,15.00
2024-01-11T02:35:45.236Z,13.60
2024-01-11T02:45:43.956Z,13.90
2024-01-11T02:55:43.474Z,13.90
2024-01-11T03:05:44.187Z,13.50
2024-01-11T03:15:44.730Z,13.60
2024-01-11T03:25:45.330Z,16.40
2024-01-11T03:35:45.849Z,14.50
2024-01-11T03:45:46.422Z,12.90
2024-01-11T03:55:46.956Z,12.20
2024-01-11T04:05:47.767Z,13.00
2024-01-11T04:15:47.964Z,13.10
2024-01-11T04:25:48.543Z,13.30
2024-01-11T04:35:49.275Z,13.60
2024-01-11T04:45:49.899Z,13.90
2024-01-11T04:55:50.402Z,14.40
2024-01-11T05:05:51.158Z,15.50
2024-01-11T05:15:51.735Z,15.80
2024-01-11T05:25:52.323Z,16.10
2024-01-11T05:35:52.860Z,16.90
2024-01-11T05:45:53.460Z,18.00
2024-01-11T05:55:55.333Z,24.20
2024-01-11T06:05:54.850Z,19.60
2024-01-11T06:15:55.409Z,19.40
2024-01-11T06:25:56.095Z,20.40
2024-01-11T06:36:03.684Z,21.40
2024-01-11T06:45:57.149Z,22.40
2024-01-11T06:55:57.702Z,21.70
2024-01-11T07:05:58.434Z,22.10
2024-01-11T07:15:58.957Z,23.40
2024-01-11T07:25:59.547Z,23.20
2024-01-11T07:36:00.197Z,24.70
2024-01-11T07:46:00.852Z,24.50
2024-01-11T07:56:01.345Z,25.50
2024-01-11T08:06:01.983Z,24.50
2024-01-11T08:16:02.561Z,26.90
2024-01-11T08:26:03.092Z,26.40
2024-01-11T08:36:03.733Z,26.40
2024-01-11T08:46:04.068Z,27.10
2024-01-11T08:56:04.593Z,28.40
2024-01-11T09:06:05.270Z,27.40
2024-01-11T09:16:05.761Z,26.70
2024-01-11T09:26:06.336Z,27.30
2024-01-11T09:36:06.852Z,27.50
2024-01-11T09:46:07.379Z,28.00
2024-01-11T09:56:07.913Z,29.90
2024-01-11T10:06:08.429Z,28.60
2024-01-11T10:16:08.898Z,28.90
2024-01-11T10:26:09.452Z,28.40
2024-01-11T10:36:09.992Z,27.10
2024-01-11T10:46:10.582Z,25.40
2024-01-11T10:56:11.139Z,25.00
2024-01-11T11:06:11.879Z,26.30
2024-01-11T11:16:12.453Z,24.60
2024-01-11T11:26:13.013Z,25.40
2024-01-11T11:36:13.500Z,24.80
2024-01-11T11:46:14.031Z,23.10
2024-01-11T11:56:14.563Z,24.20
2024-01-11T12:06:15.182Z,25.00
2024-01-11T12:16:15.693Z,26.60
2024-01-11T12:26:16.547Z,26.80
2024-01-11T12:36:24.121Z,26.40
2024-01-11T12:46:17.617Z,25.20
2024-01-11T12:56:18.288Z,23.80
2024-01-11T13:06:19.030Z,22.50
2024-01-11T13:16:19.566Z,24.20
2024-01-11T13:26:21.449Z,23.70
2024-01-11T13:36:20.638Z,22.50
2024-01-11T13:46:21.194Z,23.70
2024-01-11T13:56:23.339Z,22.70
2024-01-11T14:06:22.632Z,22.20
2024-01-11T14:16:25.134Z,19.90
2024-01-11T14:26:24.037Z,25.30
2024-01-11T14:36:24.493Z,18.20
2024-01-11T14:46:25.021Z,18.60
2024-01-11T14:56:25.514Z,19.30
2024-01-11T15:06:26.143Z,17.80
2024-01-11T15:16:26.641Z,15.90
2024-01-11T15:26:27.242Z,16.10
2024-01-11T15:36:27.702Z,14.90
2024-01-11T15:46:28.231Z,15.50
2024-01-11T15:56:28.770Z,15.70
2024-01-11T16:06:29.458Z,15.10
2024-01-11T16:16:30.038Z,16.40
2024-01-11T16:26:30.856Z,16.00
2024-01-11T16:36:31.096Z,14.60
2024-01-11T16:46:31.676Z,16.20
2024-01-11T16:56:32.280Z,17.80
2024-01-11T17:06:32.798Z,17.60
2024-01-11T17:16:33.352Z,19.70
2024-01-11T17:26:34.038Z,18.20
2024-01-11T17:36:34.564Z,19.80
2024-01-11T17:46:36.324Z,21.30
2024-01-11T17:56:36.036Z,21.00
2024-01-11T18:06:36.716Z,20.80
2024-01-11T18:16:37.268Z,20.90
2024-01-11T18:26:37.937Z,20.80
2024-01-11T18:36:45.514Z,21.40
2024-01-11T18:46:39.085Z,21.10
2024-01-11T18:56:39.671Z,21.80
2024-01-11T19:06:40.399Z,22.20
2024-01-11T19:16:41.097Z,22.00
2024-01-11T19:26:41.731Z,22.40
2024-01-11T19:36:42.260Z,21.40
2024-01-11T19:46:42.910Z,22.40
2024-01-11T19:56:43.476Z,23.50
2024-01-11T20:06:44.073Z,24.70
2024-01-11T20:16:44.609Z,22.50
2024-01-11T20:26:45.229Z,23.50
2024-01-11T20:36:45.778Z,23.00
2024-01-11T20:46:46.349Z,24.40
2024-01-11T20:56:46.956Z,22.40
2024-01-11T21:06:47.683Z,21.50
2024-01-11T21:16:48.321Z,20.80
2024-01-11T21:26:48.941Z,21.30
2024-01-11T21:36:49.496Z,20.90
2024-01-11T21:46:50.089Z,22.10
2024-01-11T21:56:50.692Z,22.00
2024-01-11T22:06:51.373Z,21.90
2024-01-11T22:16:51.940Z,20.30
2024-01-11T22:26:52.567Z,21.50
2024-01-11T22:36:53.130Z,20.20
2024-01-11T22:46:53.702Z,20.30
2024-01-11T22:56:54.268Z,19.20
2024-01-11T23:06:54.838Z,18.60
2024-01-11T23:16:55.366Z,20.60
2024-01-11T23:26:56.033Z,21.20
2024-01-11T23:36:56.545Z,21.80
2024-01-11T23:46:57.115Z,21.80
2024-01-11T23:56:57.773Z,22.00
